Weather observations for the past three days for
Hillsville
Imperial (Metric)
Date Time (edt) Wind (mph) Vis. (mi.) Weather Sky Cond. Temperature (ºF) Relative Humidity Wind Chill (°F) Heat Index (°F) Pressure Precipitation (in)
Air Dwpt 6 hour altimeter (in) sea level (mb) 1 hr 3 hr 6 hr
Max. Min.
03 06:55 W 6 7.00 Fair CLR 68 66.2 94% 30.19 0.0
03 06:15 SW 6 5.00 Fog/Mist CLR 68 66.2 94% 30.19 0.0
03 05:35 S 5 10.00 Fair CLR 68 68 100% 30.18 0.0
03 04:35 Calm 10.00 Fair CLR 69.8 68 94% 30.18 0.0
03 04:15 Calm 10.00 Fair CLR 69.8 68 94% 30.18 0.0
03 03:55 SW 3 10.00 Fair CLR 69.8 68 94% 30.18 0.0
03 03:35 SW 3 10.00 Fair CLR 71.6 68 88% 30.18 0.0
03 03:15 SW 3 10.00 Fair CLR 69.8 68 94% 30.18 0.0
03 02:35 SW 3 10.00 Fair CLR 69.8 68 94% 30.17 0.0
03 02:15 S 5 4.00 Fog/Mist CLR 69.8 68 94% 30.17 0.0
03 01:55 S 5 10.00 Fair CLR 69.8 68 94% 30.17 0.0
03 01:15 SW 3 10.00 Fair CLR 71.6 69.8 94% 30.18 0.0
03 00:35 SW 3 10.00 Fair CLR 71.6 69.8 94% 30.19 0.0
03 00:15 S 3 10.00 Fair CLR 71.6 69.8 94% 30.19 0.0
02 23:35 SW 3 10.00 Fair CLR 73.4 69.8 89% 30.19 0.0
02 23:15 SW 3 10.00 Fair CLR 73.4 69.8 89% 30.19 0.0
02 22:55 SW 5 10.00 Fair CLR 73.4 69.8 89% 30.21 0.0
02 22:35 SW 3 10.00 Fair CLR 75.2 69.8 83% 75 30.21 0.0
02 21:35 S 3 10.00 Fair CLR 77 68 74% 79 30.2 0.0
02 20:55 SE 3 10.00 Fair CLR 78.8 68 70% 81 30.19 0.0
02 20:35 SE 3 10.00 Fair CLR 80.6 68 66% 83 30.19 0.0
02 19:15 NW 5 10.00 Fair CLR 84.2 66.2 55% 87 30.19 0.0
02 18:55 NW 3 10.00 Fair CLR 86 68 55% 89 30.18 0.0
02 18:15 W 3 10.00 Fair CLR 86 66.2 52% 88 30.18 0.0
02 17:55 W 3 10.00 Fair CLR 87.8 66.2 49% 90 30.19 0.0
02 17:15 Calm 10.00 Fair CLR 87.8 64.4 46% 89 30.19 0.0
02 16:55 NW 5 10.00 Fair CLR 87.8 64.4 46% 89 30.18 0.0
02 16:15 Calm 10.00 Fair CLR 87.8 64.4 46% 89 30.19 0.0
02 15:55 Calm 10.00 Fair CLR 87.8 66.2 49% 90 30.19 0.0
02 15:35 Calm 10.00 Fair CLR 87.8 64.4 46% 89 30.2 0.0
02 15:15 NW 3 10.00 Fair CLR 87.8 64.4 46% 89 30.21 0.0
02 14:55 W 3 10.00 Fair CLR 86 64.4 49% 87 30.21 0.0
02 14:35 SW 3 10.00 Fair CLR 86 64.4 49% 87 30.21 0.0
02 13:55 W 5 10.00 Fair CLR 86 64.4 49% 87 30.23 0.0
02 13:15 Calm 10.00 Fair CLR 86 66.2 52% 88 30.23 0.0
02 12:55 SW 5 10.00 Fair CLR 86 62.6 46% 87 30.24 0.0
02 12:35 W 3 10.00 Fair CLR 84.2 64.4 51% 86 30.24 0.0
02 12:15 SW 5 10.00 Fair CLR 86 66.2 52% 88 30.25 0.0
02 11:35 Calm 10.00 Fair CLR 82.4 68 62% 85 30.25 0.0
02 11:15 W 3 10.00 Fair CLR 82.4 68 62% 85 30.25 0.0
02 10:55 Calm 10.00 Fair CLR 80.6 69.8 70% 84 30.25 0.0
02 10:35 Calm 10.00 Fair CLR 80.6 69.8 70% 84 30.25 0.0
02 09:15 Calm 10.00 Fair CLR 71.6 68 88% 30.24 0.0
02 08:55 Calm 10.00 Fair CLR 69.8 68 94% 30.24 0.0
02 08:35 SW 3 10.00 Fair CLR 69.8 68 94% 30.24 0.0
02 08:15 Calm 10.00 Fair CLR 69.8 68 94% 30.24 0.0
02 07:55 Calm 5.00 Fog/Mist CLR 68 66.2 94% 30.24 0.0
02 07:35 Calm 5.00 Fog/Mist CLR 68 66.2 94% 30.23 0.0
02 07:15 SW 3 7.00 Fair CLR 68 64.4 88% 30.23 0.0
02 06:55 SW 3 7.00 Fair CLR 68 66.2 94% 30.22 0.0
02 06:15 S 3 7.00 Fair CLR 68 66.2 94% 30.22 0.0
02 05:55 Calm 10.00 Fair CLR 68 66.2 94% 30.22 0.0
02 05:35 SW 3 7.00 Fair CLR 68 66.2 94% 30.22 0.0
02 04:15 W 3 10.00 Fair CLR 68 66.2 94% 30.21 0.0
02 03:55 SW 3 10.00 Fair CLR 69.8 68 94% 30.22 0.0
02 03:15 Calm 10.00 Fair CLR 71.6 66.2 83% 30.22 0.0
02 02:55 Calm 10.00 Fair CLR 69.8 68 94% 30.22 0.0
02 01:55 W 5 10.00 Fair CLR 69.8 68 94% 30.21 0.0
02 01:15 SW 6 10.00 Fair CLR 69.8 68 94% 30.21 0.0
02 00:15 W 6 10.00 Fair CLR 71.6 68 88% 30.2 0.0
01 23:15 Calm 10.00 Fair CLR 73.4 68 83% 30.21 0.0
01 22:55 SW 3 10.00 Fair CLR 73.4 68 83% 30.21 0.0
01 22:35 Calm 10.00 Fair CLR 73.4 68 83% 30.21 0.0
01 21:55 W 3 10.00 Fair CLR 75.2 66.2 74% 77 30.21 0.0
01 21:35 W 5 10.00 Fair CLR 77 64.4 65% 79 30.19 0.0
01 21:15 W 3 10.00 Fair CLR 77 64.4 65% 79 30.18 0.0
01 20:55 N 5 10.00 Fair CLR 78.8 64.4 61% 81 30.18 0.0
01 20:35 NW 5 10.00 Fair CLR 78.8 64.4 61% 81 30.17 0.0
01 20:15 NW 5 10.00 Fair CLR 80.6 64.4 58% 82 30.17 0.0
01 18:35 NW 6 10.00 Fair CLR 82.4 64.4 55% 84 30.19 0.0
01 18:15 N 7 10.00 Fair CLR 84.2 64.4 51% 86 30.19 0.0
01 17:55 NW 10 10.00 Fair CLR 84.2 66.2 55% 87 30.19 0.0
01 17:35 N 9 10.00 Fair CLR 86 64.4 49% 87 30.19 0.0
01 16:35 N 7 10.00 Fair CLR 86 64.4 49% 87 30.19 0.0
01 16:15 N 12 10.00 Fair CLR 86 64.4 49% 87 30.2 0.0
01 15:55 N 8 10.00 Partly Cloudy SCT049 SCT055 84.2 64.4 51% 86 30.2 0.0
01 15:35 N 6 10.00 Partly Cloudy SCT049 SCT055 86 64.4 49% 87 30.2 0.0
01 15:15 N 13 G 17 10.00 Partly Cloudy SCT049 86 64.4 49% 87 30.2 0.0
01 14:55 N 8 10.00 Partly Cloudy SCT045 SCT055 86 64.4 49% 87 30.21 0.0
01 13:35 NW 8 10.00 Partly Cloudy SCT038 82.4 64.4 55% 84 30.22 0.0
01 12:35 N 6 10.00 Partly Cloudy SCT031 SCT038 82.4 68 62% 85 30.24 0.0
01 11:55 NW 10 10.00 Fair CLR 80.6 64.4 58% 82 30.24 0.0
01 11:35 NW 9 10.00 Fair CLR 80.6 66.2 62% 83 30.24 0.0
01 11:15 NW 9 10.00 Fair CLR 80.6 68 66% 83 30.25 0.0
01 10:55 NW 7 10.00 Fair CLR 78.8 68 70% 81 30.25 0.0
01 10:35 NW 6 10.00 Fair CLR 77 68 74% 79 30.25 0.0
01 10:15 NW 5 10.00 Fair CLR 77 68 74% 79 30.25 0.0
01 09:55 W 5 10.00 Fair CLR 75.2 68 78% 76 30.25 0.0
01 09:35 W 5 10.00 Fair CLR 73.4 66.2 78% 30.25 0.0
01 09:15 W 3 10.00 Fair CLR 69.8 68 94% 30.25 0.0
01 08:55 Calm 10.00 Fair CLR 69.8 68 94% 30.25 0.0
01 08:35 Calm 10.00 Fair CLR 68 68 100% 30.25 0.0
01 08:15 Calm 7.00 Fair CLR 66.2 66.2 100% 30.25 0.0
01 07:55 Calm 3.00 Fog/Mist SCT002 66.2 64.4 94% 30.24 0.0
01 07:35 W 3 0.15 Fog OVC002 64.4 64.4 100% 30.23 0.0
01 07:15 W 5 0.15 Fog OVC002 64.4 64.4 100% 30.23 0.0
01 06:55 Calm 5.00 Fog/Mist CLR 66.2 64.4 94% 30.22 0.0
01 06:35 SW 3 5.00 Fog/Mist SCT002 66.2 64.4 94% 30.22 0.0
01 06:15 SW 3 1.00 Fog/Mist OVC002 66.2 64.4 94% 30.21 0.0
01 05:55 S 3 0.25 Fog OVC002 66.2 64.4 94% 30.21 0.0
01 05:35 SW 5 7.00 Fair CLR 68 66.2 94% 30.21 0.0
01 05:15 SW 5 5.00 Fog/Mist CLR 68 64.4 88% 30.21 0.0
01 04:55 SW 3 5.00 Fog/Mist CLR 68 66.2 94% 30.21 0.0
01 04:15 SW 6 7.00 Fair CLR 68 66.2 94% 30.21 0.0
01 03:55 SW 5 7.00 Fair CLR 68 66.2 94% 30.21 0.0
01 03:35 SW 6 5.00 Fog/Mist CLR 68 66.2 94% 30.21 0.0
01 03:15 SW 6 5.00 Fog/Mist CLR 68 66.2 94% 30.22 0.0
01 02:55 SW 5 7.00 Fair CLR 68 66.2 94% 30.22 0.0
01 02:35 SW 3 10.00 Fair CLR 68 66.2 94% 30.23 0.0
01 02:15 Calm 10.00 Fair CLR 68 66.2 94% 30.23 0.0
01 01:55 Calm 10.00 Fair CLR 68 66.2 94% 30.23 0.0
01 01:35 SW 3 10.00 Fair CLR 68 66.2 94% 30.23 0.0
01 01:15 Calm 10.00 Fair CLR 69.8 66.2 88% 30.24 0.0
01 00:55 SW 3 10.00 Fair CLR 69.8 68 94% 30.24 0.0
01 00:35 SW 3 10.00 Fair CLR 69.8 66.2 88% 30.24 0.0
31 23:55 W 3 10.00 Fair CLR 71.6 68 88% 30.24 0.0
31 23:35 W 3 10.00 Fair CLR 71.6 66.2 83% 30.23 0.0
31 23:15 SW 3 10.00 Fair CLR 71.6 68 88% 30.23 0.0
31 22:55 Calm 10.00 Fair CLR 71.6 66.2 83% 30.24 0.0
31 22:35 Calm 10.00 Fair CLR 73.4 68 83% 30.24 0.0
31 22:15 Calm 10.00 Fair CLR 73.4 68 83% 30.24 0.0
31 21:55 Calm 10.00 Fair CLR 73.4 68 83% 30.23 0.0
31 21:35 Calm 10.00 Fair CLR 75.2 66.2 74% 77 30.22 0.0
31 21:15 Calm 10.00 Fair CLR 73.4 68 83% 30.22 0.0
31 20:55 Calm 10.00 Fair CLR 75.2 66.2 74% 77 30.21 0.0
31 20:35 N 3 10.00 Fair CLR 75.2 68 78% 76 30.21 0.0
31 20:15 N 5 10.00 Fair CLR 75.2 68 78% 76 30.21 0.0
31 19:55 N 5 10.00 Partly Cloudy SCT070 77 68 74% 79 30.21 0.0
31 19:35 N 6 10.00 Mostly Cloudy SCT055 SCT070 BKN110 77 68 74% 79 30.2 0.0
31 19:15 N 6 10.00 Overcast SCT046 BKN060 OVC110 78.8 68 70% 81 30.21 0.0
31 18:55 NW 6 10.00 Partly Cloudy SCT050 80.6 66.2 62% 83 30.21 0.0
31 18:35 W 7 10.00 Fair CLR 80.6 64.4 58% 82 30.2 0.0
31 17:55 N 5 10.00 Fair CLR 82.4 64.4 55% 84 30.21 0.0
31 17:35 NW 5 10.00 Fair CLR 84.2 62.6 48% 85 30.21 0.0
31 17:15 NW 7 10.00 Fair CLR 84.2 64.4 51% 86 30.21 0.0
31 16:55 NW 3 10.00 Fair CLR 84.2 64.4 51% 86 30.2 0.0
31 16:35 NW 5 10.00 Fair CLR 84.2 62.6 48% 85 30.21 0.0
31 16:15 N 6 10.00 Fair CLR 82.4 64.4 55% 84 30.22 0.0
31 15:55 N 5 10.00 Partly Cloudy SCT049 82.4 62.6 51% 83 30.22 0.0
31 15:35 N 7 10.00 Partly Cloudy SCT049 82.4 62.6 51% 83 30.23 0.0
31 15:15 NW 7 10.00 Fair CLR 84.2 62.6 48% 85 30.23 0.0
31 14:55 N 6 10.00 Fair CLR 82.4 64.4 55% 84 30.23 0.0
31 14:35 NW 8 10.00 Partly Cloudy SCT042 82.4 64.4 55% 84 30.23 0.0
31 14:15 N 3 10.00 Partly Cloudy SCT038 82.4 64.4 55% 84 30.24 0.0
31 13:55 NW 6 10.00 Partly Cloudy SCT035 82.4 66.2 58% 85 30.25 0.0
31 13:35 N 6 10.00 Mostly Cloudy SCT035 SCT043 BKN080 80.6 64.4 58% 82 30.25 0.0
31 12:55 N 8 10.00 Partly Cloudy SCT031 80.6 66.2 62% 83 30.26 0.0
31 12:35 NW 10 G 16 10.00 Fair CLR 80.6 66.2 62% 83 30.26 0.0
31 12:15 N 9 10.00 Fair CLR 78.8 66.2 65% 81 30.27 0.0
31 11:55 N 6 G 10 10.00 Fair CLR 78.8 68 70% 81 30.27 0.0
31 11:35 N 10 10.00 Fair CLR 78.8 68 70% 81 30.26 0.0
31 11:15 N 7 10.00 Fair CLR 78.8 68 70% 81 30.26 0.0
31 10:55 N 9 10.00 Fair CLR 78.8 68 70% 81 30.26 0.0
31 09:55 NW 6 10.00 Fair CLR 73.4 66.2 78% 30.25 0.0
31 09:35 NW 3 10.00 Fair CLR 71.6 68 88% 30.25 0.0
31 09:15 NW 5 10.00 Fair CLR 69.8 68 94% 30.26 0.0
31 08:55 Calm 10.00 Fair CLR 68 68 100% 30.26 0.0
31 08:35 W 3 3.00 Fog/Mist SCT001 66.2 64.4 94% 30.25 0.0
31 08:15 Calm 0.25 Fog OVC001 64.4 64.4 100% 30.25 0.0
Date Time (edt) Wind (mph) Vis. (mi.) Weather Sky Cond. Air Dwpt Max. Min. Relative Humidity Wind Chill (°F) Heat Index (°F) altimeter (in) sea level (mb) 1 hr 3 hr 6 hr
6 hour
Temperature (ºF) Pressure Precipitation (in)